createdAt,value
2023-04-02T00:01:46.273Z,0.23
2023-04-02T00:04:16.031Z,0.23
2023-04-02T00:06:45.655Z,0.18
2023-04-02T00:09:14.907Z,0.19
2023-04-02T00:11:48.439Z,0.22
2023-04-02T00:14:33.375Z,0.27
2023-04-02T00:17:02.818Z,0.26
2023-04-02T00:19:48.455Z,0.30
2023-04-02T00:22:18.806Z,0.31
2023-04-02T00:24:46.381Z,0.26
2023-04-02T00:27:14.496Z,0.28
2023-04-02T00:29:54.118Z,0.28
2023-04-02T00:32:26.360Z,0.31
2023-04-02T00:34:53.397Z,0.37
2023-04-02T00:37:27.810Z,0.31
2023-04-02T00:40:01.502Z,0.26
2023-04-02T00:42:31.088Z,0.26
2023-04-02T00:44:58.847Z,0.23
2023-04-02T00:47:31.768Z,0.27
2023-04-02T00:50:18.351Z,0.33
2023-04-02T00:52:48.704Z,0.32
2023-04-02T00:55:20.941Z,0.31
2023-04-02T00:57:49.574Z,0.34
2023-04-02T01:00:27.310Z,0.43
2023-04-02T01:03:12.988Z,0.51
2023-04-02T01:05:42.358Z,0.52
2023-04-02T01:08:31.234Z,0.48
2023-04-02T01:11:35.539Z,0.42
2023-04-02T01:14:23.118Z,0.40
2023-04-02T01:17:08.541Z,0.40
2023-04-02T01:19:58.318Z,0.39
2023-04-02T01:23:02.450Z,0.37
2023-04-02T01:26:00.514Z,0.35
2023-04-02T01:28:36.127Z,0.29
2023-04-02T01:31:03.559Z,0.28
2023-04-02T01:33:33.581Z,0.27
2023-04-02T01:36:14.246Z,0.21
2023-04-02T01:38:48.917Z,0.23
2023-04-02T01:41:28.456Z,0.17
2023-04-02T01:44:06.244Z,0.16
2023-04-02T01:46:37.974Z,0.20
2023-04-02T01:49:13.917Z,0.17
2023-04-02T01:51:44.987Z,0.14
2023-04-02T01:54:13.603Z,0.13
2023-04-02T01:56:41.250Z,0.12
2023-04-02T01:59:10.973Z,0.08
2023-04-02T02:01:46.124Z,0.10
2023-04-02T02:04:16.664Z,0.08
2023-04-02T02:06:43.427Z,0.11
2023-04-02T02:09:25.892Z,0.10
2023-04-02T02:11:52.571Z,0.03
2023-04-02T02:14:22.222Z,0.12
2023-04-02T02:16:49.363Z,0.11
2023-04-02T02:19:40.667Z,0.08
2023-04-02T02:22:29.285Z,0.06
2023-04-02T02:24:57.586Z,-0.02
2023-04-02T02:27:23.846Z,-0.04
2023-04-02T02:29:55.477Z,-0.04
2023-04-02T02:32:25.379Z,-0.05
2023-04-02T02:35:18.263Z,-0.01
2023-04-02T02:37:49.712Z,-0.07
2023-04-02T02:40:26.868Z,-0.09
2023-04-02T02:42:59.854Z,-0.09
2023-04-02T02:45:29.697Z,-0.04
2023-04-02T02:47:57.169Z,-0.06
2023-04-02T02:50:27.209Z,-0.05
2023-04-02T02:52:55.645Z,0.01
2023-04-02T02:55:29.258Z,0.02
2023-04-02T02:58:04.405Z,0.03
2023-04-02T03:00:31.981Z,-0.01
2023-04-02T03:02:58.477Z,0.03
2023-04-02T03:05:27.910Z,0.02
2023-04-02T03:07:57.474Z,0.07
2023-04-02T03:10:39.285Z,0.09
2023-04-02T03:13:14.856Z,0.03
2023-04-02T03:15:47.137Z,-0.01
2023-04-02T03:18:22.409Z,0.03
2023-04-02T03:20:53.356Z,0.04
2023-04-02T03:23:28.883Z,0.02
2023-04-02T03:26:15.295Z,0.05
2023-04-02T03:28:46.420Z,0.05
2023-04-02T03:31:22.296Z,0.09
2023-04-02T03:33:57.114Z,0.09
2023-04-02T03:36:48.163Z,0.17
2023-04-02T03:39:26.003Z,0.21
2023-04-02T03:41:57.188Z,0.24
2023-04-02T03:44:32.039Z,0.29
2023-04-02T03:47:03.749Z,0.26
2023-04-02T03:49:56.066Z,0.29
2023-04-02T03:52:27.535Z,0.28
2023-04-02T03:54:56.284Z,0.30
2023-04-02T03:57:41.879Z,0.34
2023-04-02T04:00:16.894Z,0.39
2023-04-02T04:02:49.258Z,0.40
2023-04-02T04:05:20.634Z,0.37
2023-04-02T04:07:48.092Z,0.41
2023-04-02T04:10:20.593Z,0.42
2023-04-02T04:12:49.807Z,0.45
2023-04-02T04:15:28.906Z,0.47
2023-04-02T04:18:05.063Z,0.43
2023-04-02T04:20:33.771Z,0.39
2023-04-02T04:23:32.483Z,0.43
2023-04-02T04:26:19.735Z,0.47
2023-04-02T04:29:09.502Z,0.54
2023-04-02T04:31:55.279Z,0.59
2023-04-02T04:34:25.048Z,0.65
2023-04-02T04:36:55.778Z,0.67
2023-04-02T04:39:38.827Z,0.67
2023-04-02T04:42:07.218Z,0.69
2023-04-02T04:44:55.476Z,0.78
2023-04-02T04:47:32.015Z,0.80
2023-04-02T04:50:08.079Z,0.88
2023-04-02T04:52:38.349Z,0.97
2023-04-02T04:55:25.835Z,1.02
2023-04-02T04:57:56.634Z,1.02
2023-04-02T05:00:32.928Z,1.00
2023-04-02T05:03:20.679Z,1.05
2023-04-02T05:05:47.326Z,1.08
2023-04-02T05:08:26.987Z,1.05
2023-04-02T05:11:07.691Z,1.05
2023-04-02T05:14:01.172Z,1.09
2023-04-02T05:16:31.678Z,1.16
2023-04-02T05:19:06.801Z,1.16
2023-04-02T05:21:42.080Z,1.23
2023-04-02T05:24:20.487Z,1.30
2023-04-02T05:26:50.554Z,1.34
2023-04-02T05:29:47.131Z,1.38
2023-04-02T05:32:18.869Z,1.41
2023-04-02T05:34:53.026Z,1.44
2023-04-02T05:37:22.385Z,1.45
2023-04-02T05:39:56.563Z,1.52
2023-04-02T05:42:26.921Z,1.52
2023-04-02T05:45:17.742Z,1.53
2023-04-02T05:47:48.035Z,1.60
2023-04-02T05:50:19.641Z,1.64
2023-04-02T05:52:51.652Z,1.59
2023-04-02T05:55:18.659Z,1.69
2023-04-02T05:58:13.324Z,1.73
2023-04-02T06:00:37.263Z,1.76
2023-04-02T06:03:23.885Z,1.77
2023-04-02T06:05:52.267Z,1.80
2023-04-02T06:08:28.401Z,1.83
2023-04-02T06:11:06.306Z,1.82
2023-04-02T06:13:32.916Z,1.84
2023-04-02T06:15:59.236Z,1.84
2023-04-02T06:18:28.618Z,1.81
2023-04-02T06:20:55.249Z,1.85
2023-04-02T06:23:30.741Z,1.90
2023-04-02T06:26:14.539Z,2.00
2023-04-02T06:28:47.032Z,2.10
2023-04-02T06:31:33.798Z,2.16
2023-04-02T06:34:00.284Z,2.17
2023-04-02T06:36:28.424Z,2.17
2023-04-02T06:39:01.850Z,2.10
2023-04-02T06:41:28.249Z,2.09
2023-04-02T06:44:00.300Z,2.12
2023-04-02T06:46:33.078Z,2.26
2023-04-02T06:49:07.457Z,2.32
2023-04-02T06:51:37.071Z,2.38
2023-04-02T06:54:03.637Z,2.46
2023-04-02T06:56:44.579Z,2.48
2023-04-02T06:59:12.638Z,2.59
2023-04-02T07:01:48.783Z,2.72
2023-04-02T07:04:15.733Z,2.76
2023-04-02T07:06:42.146Z,2.81
2023-04-02T07:09:08.812Z,2.91
2023-04-02T07:11:36.002Z,2.92
2023-04-02T07:14:03.826Z,2.86
2023-04-02T07:16:32.805Z,2.92
2023-04-02T07:18:59.837Z,2.90
2023-04-02T07:21:27.596Z,3.04
2023-04-02T07:23:54.338Z,3.15
2023-04-02T07:26:23.666Z,3.24
2023-04-02T07:28:50.556Z,3.29
2023-04-02T07:31:23.437Z,3.48
2023-04-02T07:33:50.680Z,3.59
2023-04-02T07:36:20.298Z,3.77
2023-04-02T07:38:46.898Z,4.12
2023-04-02T07:41:14.441Z,4.26
2023-04-02T07:43:41.403Z,4.48
2023-04-02T07:46:09.633Z,4.53
2023-04-02T07:48:36.634Z,4.51
2023-04-02T07:51:03.282Z,4.37
2023-04-02T07:53:35.445Z,4.06
2023-04-02T07:56:03.661Z,3.83
2023-04-02T07:58:31.931Z,3.79
2023-04-02T08:00:58.972Z,3.73
2023-04-02T08:03:25.522Z,3.46
2023-04-02T08:05:57.878Z,3.52
2023-04-02T08:08:25.767Z,3.79
2023-04-02T08:10:52.148Z,4.09
2023-04-02T08:13:18.746Z,4.31
2023-04-02T08:15:45.563Z,4.29
2023-04-02T08:18:11.850Z,4.35
2023-04-02T08:20:38.247Z,4.59
2023-04-02T08:23:04.857Z,4.84
2023-04-02T08:25:31.276Z,4.73
2023-04-02T08:27:57.641Z,4.80
2023-04-02T08:30:23.948Z,4.91
2023-04-02T08:32:50.304Z,5.00
2023-04-02T08:35:16.923Z,5.05
2023-04-02T08:37:43.498Z,5.17
2023-04-02T08:40:27.382Z,5.16
2023-04-02T08:43:16.857Z,5.09
2023-04-02T08:46:09.617Z,5.37
2023-04-02T08:48:41.421Z,5.31
2023-04-02T08:51:26.515Z,5.35
2023-04-02T08:53:59.055Z,5.22
2023-04-02T08:56:48.596Z,4.92
2023-04-02T08:59:17.930Z,4.72
2023-04-02T09:02:01.830Z,4.80
2023-04-02T09:04:28.537Z,4.72
2023-04-02T09:06:57.096Z,4.83
2023-04-02T09:09:24.578Z,4.81
2023-04-02T09:11:56.147Z,4.73
2023-04-02T09:14:40.905Z,4.62
2023-04-02T09:17:17.895Z,4.79
2023-04-02T09:19:52.829Z,5.00
2023-04-02T09:22:25.972Z,5.18
2023-04-02T09:24:53.991Z,5.26
2023-04-02T09:27:38.545Z,5.43
2023-04-02T09:30:13.803Z,5.52
2023-04-02T09:32:50.084Z,5.46
2023-04-02T09:35:26.637Z,5.45
2023-04-02T09:38:23.893Z,5.49
2023-04-02T09:41:02.628Z,5.55
2023-04-02T09:43:31.839Z,5.70
2023-04-02T09:46:04.220Z,5.61
2023-04-02T09:48:58.358Z,5.49
2023-04-02T09:51:34.446Z,5.83
2023-04-02T09:54:03.681Z,5.73
2023-04-02T09:56:35.433Z,5.92
2023-04-02T09:59:02.203Z,5.97
2023-04-02T10:01:32.962Z,6.08
2023-04-02T10:04:00.744Z,5.81
2023-04-02T10:06:32.602Z,5.91
2023-04-02T10:09:19.507Z,5.55
2023-04-02T10:11:46.979Z,5.55
2023-04-02T10:14:22.964Z,5.71
2023-04-02T10:16:57.903Z,6.00
2023-04-02T10:19:37.110Z,5.84
2023-04-02T10:22:12.680Z,5.89
2023-04-02T10:24:39.737Z,5.79
2023-04-02T10:27:11.782Z,5.81
2023-04-02T10:29:46.434Z,5.77
2023-04-02T10:32:21.502Z,6.08
2023-04-02T10:35:15.616Z,6.02
2023-04-02T10:38:10.988Z,5.97
2023-04-02T10:40:44.765Z,5.94
2023-04-02T10:43:32.788Z,5.63
2023-04-02T10:46:36.766Z,5.76
2023-04-02T10:49:32.287Z,5.87
2023-04-02T10:52:03.331Z,5.71
2023-04-02T10:54:52.532Z,5.60
2023-04-02T10:57:40.410Z,5.75
2023-04-02T11:00:16.998Z,5.79
2023-04-02T11:02:50.740Z,5.68
2023-04-02T11:05:44.473Z,5.92
2023-04-02T11:08:25.807Z,6.21
2023-04-02T11:10:59.208Z,6.34
2023-04-02T11:13:35.522Z,6.46
2023-04-02T11:16:02.429Z,6.30
2023-04-02T11:18:35.657Z,6.31
2023-04-02T11:21:15.281Z,6.51
2023-04-02T11:23:58.383Z,6.56
2023-04-02T11:26:47.277Z,6.17
2023-04-02T11:29:31.655Z,6.30
2023-04-02T11:32:27.424Z,6.23
2023-04-02T11:35:05.647Z,6.24
2023-04-02T11:37:45.966Z,6.32
2023-04-02T11:40:12.765Z,6.17
2023-04-02T11:42:41.120Z,6.20
2023-04-02T11:45:28.748Z,5.91
2023-04-02T11:48:01.564Z,5.77
2023-04-02T11:50:32.976Z,5.70
2023-04-02T11:53:03.579Z,6.00
2023-04-02T11:55:35.319Z,6.22
2023-04-02T11:58:17.269Z,6.25
2023-04-02T12:01:18.303Z,6.02
2023-04-02T12:04:03.329Z,5.81
2023-04-02T12:07:06.895Z,6.11
2023-04-02T12:09:47.933Z,6.20
2023-04-02T12:12:37.692Z,6.19
2023-04-02T12:15:28.637Z,6.15
2023-04-02T12:18:05.812Z,6.30
2023-04-02T12:20:32.615Z,6.07
2023-04-02T12:22:59.266Z,6.29
2023-04-02T12:25:32.048Z,6.00
2023-04-02T12:28:10.606Z,5.85
2023-04-02T12:30:38.740Z,6.16
2023-04-02T12:33:37.343Z,6.24
2023-04-02T12:36:06.680Z,6.32
2023-04-02T12:38:36.786Z,6.35
2023-04-02T12:41:06.236Z,6.41
2023-04-02T12:43:37.894Z,6.50
2023-04-02T12:46:07.440Z,6.29
2023-04-02T12:48:35.410Z,6.39
2023-04-02T12:51:03.680Z,6.27
2023-04-02T12:53:41.127Z,6.17
2023-04-02T12:56:10.997Z,6.13
2023-04-02T12:58:40.489Z,6.21
2023-04-02T13:01:29.829Z,6.33
2023-04-02T13:03:59.420Z,6.50
2023-04-02T13:06:26.923Z,6.44
2023-04-02T13:08:54.685Z,6.23
2023-04-02T13:11:22.576Z,6.19
2023-04-02T13:13:50.223Z,6.41
2023-04-02T13:16:19.694Z,6.13
2023-04-02T13:18:48.419Z,6.06
2023-04-02T13:21:14.689Z,6.06
2023-04-02T13:23:41.072Z,6.21
2023-04-02T13:26:24.371Z,6.35
2023-04-02T13:29:02.561Z,6.29
2023-04-02T13:31:30.338Z,6.36
2023-04-02T13:33:56.916Z,6.67
2023-04-02T13:36:23.297Z,6.19
2023-04-02T13:38:49.752Z,6.14
2023-04-02T13:41:22.696Z,6.36
2023-04-02T13:43:53.593Z,6.37
2023-04-02T13:46:23.074Z,6.32
2023-04-02T13:48:50.738Z,6.11
2023-04-02T13:51:19.031Z,6.16
2023-04-02T13:53:48.499Z,6.01
2023-04-02T13:56:14.776Z,5.90
2023-04-02T13:58:41.216Z,6.00
2023-04-02T14:01:09.183Z,5.87
2023-04-02T14:03:35.606Z,6.14
2023-04-02T14:06:20.983Z,6.43
2023-04-02T14:09:02.356Z,6.27
2023-04-02T14:11:34.537Z,5.73
2023-04-02T14:14:22.979Z,5.76
2023-04-02T14:16:58.441Z,5.81
2023-04-02T14:19:59.682Z,5.77
2023-04-02T14:22:45.600Z,5.76
2023-04-02T14:25:21.769Z,5.66
2023-04-02T14:28:14.440Z,5.54
2023-04-02T14:31:02.790Z,5.56
2023-04-02T14:33:35.912Z,5.76
2023-04-02T14:36:14.469Z,5.61
2023-04-02T14:38:46.714Z,5.34
2023-04-02T14:41:30.007Z,5.35
2023-04-02T14:44:03.328Z,5.42
2023-04-02T14:46:32.306Z,5.62
2023-04-02T14:49:19.155Z,5.59
2023-04-02T14:51:57.609Z,5.69
2023-04-02T14:54:51.566Z,5.74
2023-04-02T14:57:24.757Z,5.91
2023-04-02T15:00:03.971Z,5.71
2023-04-02T15:02:37.588Z,5.40
2023-04-02T15:05:21.063Z,5.45
2023-04-02T15:08:05.365Z,5.62
2023-04-02T15:10:39.142Z,5.84
2023-04-02T15:13:12.027Z,5.86
2023-04-02T15:15:48.828Z,5.34
2023-04-02T15:18:17.057Z,5.23
2023-04-02T15:21:04.706Z,5.08
2023-04-02T15:23:51.249Z,5.10
2023-04-02T15:26:30.800Z,5.21
2023-04-02T15:29:28.253Z,5.44
2023-04-02T15:32:03.970Z,5.40
2023-04-02T15:34:35.301Z,5.46
2023-04-02T15:37:13.784Z,5.43
2023-04-02T15:39:58.433Z,5.32
2023-04-02T15:42:37.011Z,5.19
2023-04-02T15:45:12.250Z,5.20
2023-04-02T15:47:48.581Z,5.21
2023-04-02T15:50:44.048Z,5.24
2023-04-02T15:53:26.967Z,5.25
2023-04-02T15:55:59.292Z,5.27
2023-04-02T15:58:47.080Z,5.17
2023-04-02T16:01:45.100Z,5.16
2023-04-02T16:04:21.482Z,5.02
2023-04-02T16:06:58.830Z,5.00
2023-04-02T16:09:34.854Z,5.08
2023-04-02T16:12:20.939Z,5.16
2023-04-02T16:14:49.529Z,5.17
2023-04-02T16:17:32.573Z,5.07
2023-04-02T16:20:31.808Z,4.88
2023-04-02T16:23:07.132Z,4.70
2023-04-02T16:26:27.836Z,4.73
2023-04-02T16:28:57.174Z,4.70
2023-04-02T16:31:35.307Z,4.72
2023-04-02T16:34:12.678Z,4.62
2023-04-02T16:36:52.297Z,4.43
2023-04-02T16:39:30.578Z,4.44
2023-04-02T16:42:25.439Z,4.33
2023-04-02T16:45:02.905Z,4.27
2023-04-02T16:48:00.407Z,4.24
2023-04-02T16:50:45.824Z,4.20
2023-04-02T16:53:51.121Z,4.22
2023-04-02T16:56:40.781Z,4.20
2023-04-02T16:59:22.885Z,4.10
2023-04-02T17:02:46.625Z,4.46
2023-04-02T17:05:29.265Z,4.42
2023-04-02T17:08:22.159Z,4.34
2023-04-02T17:10:50.556Z,4.43
2023-04-02T17:13:27.017Z,4.38
2023-04-02T17:15:58.795Z,4.25
2023-04-02T17:18:25.221Z,4.03
2023-04-02T17:20:51.919Z,3.89
2023-04-02T17:23:20.151Z,3.65
2023-04-02T17:26:01.945Z,3.62
2023-04-02T17:28:36.673Z,3.62
2023-04-02T17:31:10.287Z,3.55
2023-04-02T17:33:36.636Z,3.47
2023-04-02T17:36:16.279Z,3.43
2023-04-02T17:39:20.658Z,3.35
2023-04-02T17:42:17.078Z,3.27
2023-04-02T17:44:53.731Z,3.12
2023-04-02T17:47:30.388Z,3.05
2023-04-02T17:50:20.059Z,3.05
2023-04-02T17:52:58.618Z,2.91
2023-04-02T17:55:47.084Z,2.93
2023-04-02T17:58:44.223Z,2.91
2023-04-02T18:01:37.939Z,2.69
2023-04-02T18:04:30.013Z,2.66
2023-04-02T18:07:21.277Z,2.72
2023-04-02T18:10:17.251Z,2.64
2023-04-02T18:13:14.219Z,2.56
2023-04-02T18:15:48.457Z,2.58
2023-04-02T18:18:24.386Z,2.51
2023-04-02T18:21:21.323Z,2.46
2023-04-02T18:23:54.193Z,2.39
2023-04-02T18:26:42.653Z,2.31
2023-04-02T18:29:41.335Z,2.33
2023-04-02T18:32:29.124Z,2.29
2023-04-02T18:35:02.648Z,2.31
2023-04-02T18:37:43.194Z,2.25
2023-04-02T18:40:21.960Z,2.24
2023-04-02T18:43:16.600Z,2.15
2023-04-02T18:45:56.470Z,2.08
2023-04-02T18:48:41.010Z,2.10
2023-04-02T18:51:14.848Z,2.03
2023-04-02T18:53:42.987Z,1.96
2023-04-02T18:56:19.763Z,2.03
2023-04-02T18:59:01.338Z,2.00
2023-04-02T19:01:34.330Z,1.91
2023-04-02T19:04:06.093Z,1.80
2023-04-02T19:06:39.498Z,1.79
2023-04-02T19:09:21.314Z,1.73
2023-04-02T19:11:48.818Z,1.68
2023-04-02T19:14:20.123Z,1.62
2023-04-02T19:17:35.929Z,1.58
2023-04-02T19:20:24.837Z,1.54
2023-04-02T19:23:12.020Z,1.49
2023-04-02T19:26:01.234Z,1.37
2023-04-02T19:28:37.472Z,1.34
2023-04-02T19:31:30.543Z,1.28
2023-04-02T19:34:21.889Z,1.28
2023-04-02T19:37:01.725Z,1.29
2023-04-02T19:39:59.400Z,1.30
2023-04-02T19:42:46.095Z,1.30
2023-04-02T19:45:53.161Z,1.23
2023-04-02T19:48:26.736Z,1.20
2023-04-02T19:50:53.630Z,1.18
2023-04-02T19:53:20.034Z,1.18
2023-04-02T19:55:46.987Z,1.11
2023-04-02T19:58:25.760Z,1.16
2023-04-02T20:00:52.149Z,1.11
2023-04-02T20:03:18.684Z,1.09
2023-04-02T20:05:45.335Z,1.04
2023-04-02T20:08:11.956Z,1.09
2023-04-02T20:10:38.552Z,1.12
2023-04-02T20:13:05.269Z,1.09
2023-04-02T20:15:33.318Z,1.09
2023-04-02T20:18:02.201Z,1.05
2023-04-02T20:20:28.536Z,1.01
2023-04-02T20:22:54.928Z,1.01
2023-04-02T20:25:21.274Z,1.00
2023-04-02T20:27:47.674Z,1.02
2023-04-02T20:30:14.133Z,0.99
2023-04-02T20:32:41.303Z,0.93
2023-04-02T20:35:08.160Z,0.90
2023-04-02T20:37:34.785Z,0.84
2023-04-02T20:40:01.233Z,0.84
2023-04-02T20:42:27.715Z,0.86
2023-04-02T20:44:54.043Z,0.83
2023-04-02T20:47:20.572Z,0.80
2023-04-02T20:49:46.979Z,0.83
2023-04-02T20:52:13.335Z,0.76
2023-04-02T20:54:39.808Z,0.77
2023-04-02T20:57:06.171Z,0.75
2023-04-02T20:59:32.514Z,0.76
2023-04-02T21:01:59.020Z,0.73
2023-04-02T21:04:26.977Z,0.70
2023-04-02T21:06:56.818Z,0.66
2023-04-02T21:09:23.743Z,0.62
2023-04-02T21:11:50.205Z,0.61
2023-04-02T21:14:17.082Z,0.62
2023-04-02T21:16:43.677Z,0.59
2023-04-02T21:19:10.870Z,0.51
2023-04-02T21:21:38.666Z,0.50
2023-04-02T21:24:07.693Z,0.48
2023-04-02T21:26:39.659Z,0.43
2023-04-02T21:29:06.544Z,0.35
2023-04-02T21:31:38.583Z,0.36
2023-04-02T21:34:06.383Z,0.35
2023-04-02T21:36:39.937Z,0.34
2023-04-02T21:39:09.342Z,0.17
2023-04-02T21:41:41.181Z,0.03
2023-04-02T21:44:10.111Z,-0.09
2023-04-02T21:46:39.134Z,-0.13
2023-04-02T21:49:07.900Z,-0.14
2023-04-02T21:51:36.443Z,-0.17
2023-04-02T21:54:03.357Z,-0.36
2023-04-02T21:56:35.494Z,-0.35
2023-04-02T21:59:03.713Z,-0.26
2023-04-02T22:01:35.889Z,-0.24
2023-04-02T22:04:04.270Z,-0.27
2023-04-02T22:06:33.151Z,-0.31
2023-04-02T22:09:02.507Z,-0.34
2023-04-02T22:11:32.099Z,-0.43
2023-04-02T22:13:59.245Z,-0.50
2023-04-02T22:16:27.949Z,-0.58
2023-04-02T22:18:56.408Z,-0.55
2023-04-02T22:21:23.230Z,-0.54
2023-04-02T22:23:50.278Z,-0.51
2023-04-02T22:26:18.290Z,-0.53
2023-04-02T22:28:45.241Z,-0.58
2023-04-02T22:31:14.624Z,-0.64
2023-04-02T22:33:42.058Z,-0.63
2023-04-02T22:36:08.865Z,-0.58
2023-04-02T22:38:36.200Z,-0.56
2023-04-02T22:41:14.401Z,-0.50
2023-04-02T22:43:43.884Z,-0.49
2023-04-02T22:46:11.874Z,-0.52
2023-04-02T22:48:41.222Z,-0.46
2023-04-02T22:51:09.186Z,-0.55
2023-04-02T22:53:36.602Z,-0.37
2023-04-02T22:56:06.658Z,-0.42
2023-04-02T22:58:33.448Z,-0.47
2023-04-02T23:01:17.976Z,-0.47
2023-04-02T23:03:44.416Z,-0.58
2023-04-02T23:06:13.945Z,-0.62
2023-04-02T23:08:40.759Z,-0.68
2023-04-02T23:11:22.541Z,-0.82
2023-04-02T23:13:51.164Z,-0.84
2023-04-02T23:16:18.225Z,-0.76
2023-04-02T23:18:48.605Z,-0.74
2023-04-02T23:21:16.753Z,-0.74
2023-04-02T23:23:43.783Z,-0.66
2023-04-02T23:26:12.418Z,-0.74
2023-04-02T23:28:40.045Z,-0.82
2023-04-02T23:31:09.360Z,-0.85
2023-04-02T23:33:35.956Z,-0.88
2023-04-02T23:36:24.109Z,-0.93
2023-04-02T23:38:55.600Z,-0.93
2023-04-02T23:41:23.895Z,-1.01
2023-04-02T23:43:50.960Z,-1.01
2023-04-02T23:46:17.317Z,-1.00
2023-04-02T23:48:45.754Z,-0.97
2023-04-02T23:51:13.053Z,-0.99
2023-04-02T23:53:39.426Z,-1.00
2023-04-02T23:56:06.180Z,-1.02
2023-04-02T23:58:32.560Z,-1.13
